Time;durP1;ratioP1;P1;durP2;ratioP2;P2;SDS_P1;SDS_P2;PMS_P1;PMS_P2;Temp;Humidity;BMP_temperature;BMP_pressure;BME280_temperature;BME280_humidity;BME280_pressure;Samples;Min_cycle;Max_cycle;Signal;HPM_P1;HPM_P2
2021/09/05 00:00:29;;;;;;;19.38;7.72;;;;;;;15.47;68.79;100487.72;5036183;28;20087;-58
2021/09/05 00:02:55;;;;;;;14.90;8.13;;;;;;;15.40;68.55;100479.38;5036708;28;20024;-58
2021/09/05 00:05:20;;;;;;;15.82;8.13;;;;;;;15.37;68.90;100488.75;5036503;28;20022;-58
2021/09/05 00:07:46;;;;;;;19.13;8.70;;;;;;;15.34;69.03;100489.59;5036272;28;20091;-58
2021/09/05 00:10:11;;;;;;;16.63;8.27;;;;;;;15.33;69.25;100485.94;5036621;28;20018;-58
2021/09/05 00:12:37;;;;;;;12.43;7.55;;;;;;;15.32;69.14;100487.19;5036376;28;20435;-59
2021/09/05 00:15:06;;;;;;;12.60;8.05;;;;;;;15.30;69.36;100488.84;5036301;28;20470;-58
2021/09/05 00:17:31;;;;;;;15.75;8.88;;;;;;;15.30;71.05;100494.53;5036450;28;20121;-58
2021/09/05 00:19:57;;;;;;;14.07;7.65;;;;;;;15.32;71.35;100497.72;5035819;28;20416;-58
2021/09/05 00:22:22;;;;;;;16.25;8.05;;;;;;;15.34;70.60;100500.91;5036212;28;20033;-58
2021/09/05 00:24:47;;;;;;;12.82;7.97;;;;;;;15.33;69.54;100494.44;5035633;28;20348;-58
2021/09/05 00:27:13;;;;;;;14.50;7.82;;;;;;;15.36;69.39;100492.81;5035899;28;20027;-58
2021/09/05 00:29:38;;;;;;;17.20;7.88;;;;;;;15.35;69.47;100486.34;5035896;28;20036;-58
2021/09/05 00:32:04;;;;;;;12.63;7.53;;;;;;;15.39;69.65;100491.94;5035942;28;20325;-58
2021/09/05 00:34:29;;;;;;;17.02;7.40;;;;;;;15.41;70.83;100498.78;5035676;28;20025;-58
2021/09/05 00:36:55;;;;;;;17.75;8.00;;;;;;;15.41;70.52;100498.78;5035382;28;20026;-57
2021/09/05 00:39:20;;;;;;;14.90;7.90;;;;;;;15.40;69.61;100493.53;5035589;28;20021;-58
2021/09/05 00:41:47;;;;;;;11.30;7.03;;;;;;;15.36;69.42;100489.97;5035809;28;20029;-65
2021/09/05 00:44:12;;;;;;;13.93;7.93;;;;;;;15.33;69.63;100490.81;5021719;28;20021;-58
2021/09/05 00:46:38;;;;;;;17.98;7.53;;;;;;;15.29;69.79;100495.75;5035763;28;20025;-58
2021/09/05 00:49:05;;;;;;;13.77;7.63;;;;;;;15.26;69.79;100502.28;5035395;28;20017;-57
2021/09/05 00:51:34;;;;;;;17.40;7.10;;;;;;;15.22;69.56;100498.72;5035546;28;20452;-58
2021/09/05 00:54:01;;;;;;;12.25;7.13;;;;;;;15.20;68.95;100504.81;5034654;28;20407;-58
2021/09/05 00:56:34;;;;;;;12.45;7.88;;;;;;;15.21;69.94;100517.75;5035851;28;20034;-58
2021/09/05 00:59:10;;;;;;;14.55;6.90;;;;;;;15.25;69.79;100514.84;5035455;28;20025;-58
2021/09/05 01:01:36;;;;;;;12.25;6.45;;;;;;;15.25;69.01;100512.81;5035478;28;20032;-57
2021/09/05 01:04:02;;;;;;;12.00;6.93;;;;;;;15.28;68.73;100508.31;5035457;28;20425;-58
2021/09/05 01:06:28;;;;;;;15.02;7.60;;;;;;;15.32;68.65;100509.03;5035747;28;20099;-58
2021/09/05 01:08:54;;;;;;;12.15;7.82;;;;;;;15.32;68.35;100517.53;5035201;28;20152;-59
2021/09/05 01:11:19;;;;;;;14.10;7.25;;;;;;;15.35;67.93;100513.88;5034639;28;20053;-60
2021/09/05 01:13:45;;;;;;;11.20;7.10;;;;;;;15.33;67.78;100513.47;5035423;28;20037;-60
2021/09/05 01:16:27;;;;;;;9.48;6.20;;;;;;;15.33;67.97;100516.31;5035208;28;20036;-60
2021/09/05 01:18:53;;;;;;;10.10;6.57;;;;;;;15.34;68.10;100515.06;5035145;28;20104;-61
2021/09/05 01:21:19;;;;;;;11.25;6.43;;;;;;;15.31;68.41;100511.06;5035569;28;20029;-60
2021/09/05 01:23:45;;;;;;;13.25;6.72;;;;;;;15.29;68.11;100512.75;5034766;28;20025;-60
2021/09/05 01:26:12;;;;;;;9.77;6.57;;;;;;;15.28;68.60;100513.97;5035426;28;20295;-61
2021/09/05 01:28:38;;;;;;;10.30;6.53;;;;;;;15.28;68.90;100520.44;5032618;28;20027;-60
2021/09/05 01:31:03;;;;;;;8.93;6.45;;;;;;;15.28;69.09;100517.59;5032760;28;20045;-60
2021/09/05 01:33:28;;;;;;;9.93;6.15;;;;;;;15.27;68.90;100512.38;5034613;28;20413;-61
2021/09/05 01:35:54;;;;;;;10.85;7.70;;;;;;;15.24;69.22;100524.56;5035123;28;20032;-58
2021/09/05 01:38:19;;;;;;;14.02;6.57;;;;;;;15.22;69.29;100521.38;5034991;28;20029;-59
2021/09/05 01:40:45;;;;;;;10.38;6.55;;;;;;;15.20;70.05;100527.47;5034767;28;20102;-59
2021/09/05 01:43:10;;;;;;;7.30;5.97;;;;;;;15.19;70.22;100530.72;5034194;28;20021;-59
2021/09/05 01:45:35;;;;;;;12.30;6.95;;;;;;;15.17;70.44;100521.88;5034882;28;20033;-59
2021/09/05 01:48:01;;;;;;;9.52;6.00;;;;;;;15.13;70.24;100524.78;5034947;28;20031;-58
2021/09/05 01:50:26;;;;;;;9.40;5.88;;;;;;;15.13;69.91;100534.06;5035334;28;20392;-59
2021/09/05 01:52:51;;;;;;;9.38;6.88;;;;;;;15.11;70.21;100530.88;5035040;28;20021;-58
2021/09/05 01:55:17;;;;;;;11.93;6.00;;;;;;;15.10;70.49;100531.28;5023989;28;20397;-58
2021/09/05 01:57:42;;;;;;;14.27;6.97;;;;;;;15.07;70.43;100526.50;5032129;28;20367;-68
2021/09/05 02:00:08;;;;;;;9.93;6.72;;;;;;;15.05;69.85;100535.38;5035117;28;20021;-60
2021/09/05 02:02:33;;;;;;;14.45;7.25;;;;;;;15.04;70.27;100535.81;5034484;28;20022;-60
2021/09/05 02:04:59;;;;;;;11.25;5.88;;;;;;;15.03;70.75;100535.03;5038303;28;20320;-60
2021/09/05 02:07:24;;;;;;;10.05;6.90;;;;;;;15.03;70.98;100537.84;5039008;28;20381;-60
2021/09/05 02:09:49;;;;;;;12.80;7.30;;;;;;;15.02;70.34;100536.25;5038470;28;20028;-60
2021/09/05 02:12:15;;;;;;;15.07;7.43;;;;;;;15.05;70.73;100541.06;5038811;28;20324;-60
2021/09/05 02:14:40;;;;;;;10.57;7.63;;;;;;;15.07;70.77;100532.97;5036368;28;20321;-60
2021/09/05 02:17:06;;;;;;;10.85;7.75;;;;;;;15.09;70.23;100541.81;5037924;28;20040;-60
2021/09/05 02:19:33;;;;;;;13.23;7.45;;;;;;;15.11;70.28;100545.00;5038327;28;20037;-60
2021/09/05 02:21:59;;;;;;;14.20;7.15;;;;;;;15.13;70.23;100542.56;5038550;28;20021;-60
2021/09/05 02:24:24;;;;;;;10.93;7.15;;;;;;;15.14;69.47;100549.00;5038492;28;20032;-60
2021/09/05 02:26:49;;;;;;;10.73;7.25;;;;;;;15.16;69.78;100546.56;5038006;28;20332;-58
2021/09/05 02:29:15;;;;;;;13.82;7.13;;;;;;;15.17;69.19;100548.16;5038502;28;20409;-61
2021/09/05 02:31:40;;;;;;;14.18;7.35;;;;;;;15.19;68.98;100544.88;5036949;28;20455;-60
2021/09/05 02:34:06;;;;;;;13.32;7.40;;;;;;;15.22;69.53;100555.34;5038231;28;20029;-60
2021/09/05 02:36:31;;;;;;;10.55;7.20;;;;;;;15.25;69.52;100549.63;5038114;28;20029;-60
2021/09/05 02:38:56;;;;;;;12.18;7.80;;;;;;;15.28;69.20;100551.59;5033779;28;20029;-60
2021/09/05 02:41:22;;;;;;;12.35;7.72;;;;;;;15.32;69.41;100548.69;5034009;28;20112;-60
2021/09/05 02:43:47;;;;;;;16.67;7.15;;;;;;;15.33;69.41;100551.09;5037716;28;20108;-60
2021/09/05 02:46:12;;;;;;;10.52;8.05;;;;;;;15.38;69.34;100552.66;5038142;28;20071;-60
2021/09/05 02:48:38;;;;;;;13.50;8.32;;;;;;;15.42;69.33;100547.72;5038254;28;20101;-60
2021/09/05 02:51:03;;;;;;;14.52;8.35;;;;;;;15.46;69.27;100542.78;5037732;28;20025;-59
2021/09/05 02:53:28;;;;;;;14.23;8.20;;;;;;;15.50;69.83;100542.72;5038089;28;20031;-58
2021/09/05 02:55:54;;;;;;;13.07;8.50;;;;;;;15.53;69.57;100547.50;5036327;28;20317;-60
2021/09/05 02:58:19;;;;;;;12.38;8.55;;;;;;;15.56;69.71;100549.47;5037465;28;20067;-69
2021/09/05 03:00:44;;;;;;;13.85;8.07;;;;;;;15.60;69.54;100547.41;5037411;28;20108;-58
2021/09/05 03:03:10;;;;;;;13.50;8.70;;;;;;;15.62;69.25;100545.75;5037838;28;20091;-58
2021/09/05 03:05:35;;;;;;;12.15;8.93;;;;;;;15.63;68.87;100550.19;5037476;28;20052;-58
2021/09/05 03:08:01;;;;;;;18.27;9.85;;;;;;;15.62;69.10;100551.44;5037617;28;20037;-59
2021/09/05 03:10:27;;;;;;;15.05;9.05;;;;;;;15.61;68.77;100547.00;5037655;28;20029;-60
2021/09/05 03:12:52;;;;;;;13.32;8.90;;;;;;;15.62;69.10;100548.59;5037082;28;20025;-59
2021/09/05 03:15:18;;;;;;;14.68;8.70;;;;;;;15.64;69.45;100554.63;5036534;28;20432;-58
2021/09/05 03:17:43;;;;;;;13.07;8.82;;;;;;;15.63;69.54;100558.69;5037249;28;20063;-58
2021/09/05 03:20:09;;;;;;;17.35;8.15;;;;;;;15.61;69.28;100555.50;5033383;28;20025;-59
2021/09/05 03:22:35;;;;;;;15.23;8.07;;;;;;;15.58;69.27;100556.34;5031829;28;20022;-58
2021/09/05 03:25:00;;;;;;;14.32;8.77;;;;;;;15.54;69.06;100552.75;5037234;28;20029;-58
2021/09/05 03:27:26;;;;;;;14.55;8.75;;;;;;;15.54;70.03;100554.78;5037149;28;20032;-58
2021/09/05 03:29:51;;;;;;;12.80;9.18;;;;;;;15.52;69.86;100552.38;5036899;28;20368;-59
2021/09/05 03:32:16;;;;;;;14.63;9.55;;;;;;;15.49;70.01;100558.09;5037225;28;20032;-58
2021/09/05 03:34:42;;;;;;;15.98;9.48;;;;;;;15.48;70.51;100562.19;5036817;28;20114;-59
2021/09/05 03:37:07;;;;;;;14.77;9.60;;;;;;;15.45;70.76;100564.66;5037250;28;20043;-58
2021/09/05 03:39:32;;;;;;;12.65;9.00;;;;;;;15.44;70.45;100570.75;5037194;28;20025;-58
2021/09/05 03:41:58;;;;;;;13.82;9.82;;;;;;;15.38;70.41;100572.47;5036571;28;20136;-57
2021/09/05 03:44:23;;;;;;;16.20;9.88;;;;;;;15.32;70.84;100572.16;5037188;28;20423;-68
2021/09/05 03:46:49;;;;;;;16.58;10.38;;;;;;;15.28;71.56;100562.13;5036774;28;20029;-58
2021/09/05 03:49:15;;;;;;;15.38;10.90;;;;;;;15.26;71.46;100579.53;5036904;28;20025;-58
2021/09/05 03:51:40;;;;;;;16.23;11.27;;;;;;;15.26;71.81;100567.41;5036847;28;20025;-55
2021/09/05 03:54:05;;;;;;;19.10;11.25;;;;;;;15.24;72.07;100581.19;5036477;28;20028;-58
2021/09/05 03:56:31;;;;;;;17.38;10.82;;;;;;;15.22;72.19;100573.13;5035598;28;20026;-58
2021/09/05 03:58:58;;;;;;;18.38;10.85;;;;;;;15.22;72.82;100583.66;5036578;28;20025;-58
2021/09/05 04:01:23;;;;;;;16.65;11.40;;;;;;;15.19;72.95;100584.53;5036591;28;20017;-58
2021/09/05 04:03:48;;;;;;;13.27;10.90;;;;;;;15.16;72.67;100586.19;5036701;28;20103;-59
2021/09/05 04:06:14;;;;;;;15.93;11.15;;;;;;;15.14;73.00;100594.31;5036503;28;20071;-58
2021/09/05 04:08:42;;;;;;;17.42;10.60;;;;;;;15.11;73.09;100595.97;5036574;28;20025;-58
2021/09/05 04:11:08;;;;;;;19.38;12.15;;;;;;;15.10;73.39;100600.03;5036108;28;20021;-59
2021/09/05 04:13:34;;;;;;;16.60;12.45;;;;;;;15.09;73.86;100587.13;5036566;28;20099;-58
2021/09/05 04:16:00;;;;;;;16.48;11.95;;;;;;;15.09;73.54;100598.44;5033907;28;20026;-58
2021/09/05 04:18:25;;;;;;;22.17;11.55;;;;;;;15.10;74.58;100605.69;5036276;28;20052;-59
2021/09/05 04:20:50;;;;;;;17.38;12.45;;;;;;;15.08;74.45;100602.50;5036339;28;20025;-58
2021/09/05 04:23:16;;;;;;;17.60;12.82;;;;;;;15.07;74.92;100600.91;5036228;28;20032;-58
2021/09/05 04:25:41;;;;;;;18.50;12.23;;;;;;;15.07;74.84;100600.09;5035983;28;20079;-58
2021/09/05 04:28:06;;;;;;;18.45;12.13;;;;;;;15.05;74.97;100605.34;5036096;28;20021;-58
2021/09/05 04:30:32;;;;;;;16.05;12.90;;;;;;;15.07;74.86;100611.41;5036106;28;20045;-58
2021/09/05 04:32:57;;;;;;;17.55;12.70;;;;;;;15.06;74.57;100618.28;5036000;28;20033;-58
2021/09/05 04:35:23;;;;;;;18.73;13.18;;;;;;;15.07;74.68;100620.72;5036080;28;20502;-58
2021/09/05 04:37:48;;;;;;;19.40;14.20;;;;;;;15.07;74.47;100620.72;5035848;28;20030;-58
2021/09/05 04:40:13;;;;;;;20.27;14.40;;;;;;;15.06;74.61;100627.56;5035675;28;20029;-58
2021/09/05 04:42:39;;;;;;;19.67;13.43;;;;;;;15.04;75.46;100627.22;5035843;28;20113;-58
2021/09/05 04:45:04;;;;;;;19.85;12.90;;;;;;;15.04;75.55;100624.38;5035924;28;20029;-58
2021/09/05 04:47:30;;;;;;;18.08;13.10;;;;;;;15.07;75.87;100628.41;5035744;28;20049;-58
2021/09/05 04:49:55;;;;;;;22.55;14.50;;;;;;;15.09;76.14;100632.41;5034996;28;20425;-58
2021/09/05 04:52:20;;;;;;;21.70;13.77;;;;;;;15.11;75.82;100637.66;5035625;28;20401;-58
2021/09/05 04:54:46;;;;;;;18.92;13.52;;;;;;;15.12;76.48;100640.03;5035408;28;20091;-58
2021/09/05 04:57:11;;;;;;;22.00;13.90;;;;;;;15.16;76.24;100639.97;5035664;28;20108;-58
2021/09/05 04:59:37;;;;;;;19.15;14.52;;;;;;;15.20;76.71;100639.94;5036045;28;20067;-58
2021/09/05 05:02:02;;;;;;;23.08;14.55;;;;;;;15.25;76.87;100645.09;5035695;28;20037;-58
2021/09/05 05:04:28;;;;;;;21.80;14.73;;;;;;;15.31;77.25;100649.03;5035520;28;20048;-58
2021/09/05 05:06:54;;;;;;;23.77;15.30;;;;;;;15.37;76.78;100647.34;5035427;28;20077;-58
2021/09/05 05:09:19;;;;;;;20.20;14.93;;;;;;;15.43;77.12;100652.09;5035298;28;20045;-58
2021/09/05 05:11:45;;;;;;;20.88;14.65;;;;;;;15.52;77.44;100656.41;5035549;28;20060;-58
2021/09/05 05:14:11;;;;;;;22.38;15.23;;;;;;;15.57;76.99;100662.38;5035144;28;20100;-58
2021/09/05 05:16:36;;;;;;;21.08;15.15;;;;;;;15.65;77.03;100658.22;5035641;28;20029;-58
2021/09/05 05:19:03;;;;;;;19.33;14.15;;;;;;;15.73;76.85;100654.03;5035699;28;20083;-58
2021/09/05 05:21:28;;;;;;;22.25;15.25;;;;;;;15.82;76.58;100661.97;5035486;28;20036;-59
2021/09/05 05:23:55;;;;;;;20.23;14.80;;;;;;;15.91;75.90;100653.72;5035187;28;20104;-58
2021/09/05 05:26:20;;;;;;;20.20;15.27;;;;;;;16.02;75.66;100659.19;5035273;28;20021;-58
2021/09/05 05:28:46;;;;;;;27.67;15.27;;;;;;;16.12;75.80;100661.00;5035222;28;20080;-58
2021/09/05 05:31:11;;;;;;;22.75;15.40;;;;;;;16.22;75.04;100657.19;5035178;28;20057;-59
2021/09/05 05:33:37;;;;;;;27.58;15.07;;;;;;;16.30;75.02;100663.50;5034735;28;20051;-57
2021/09/05 05:36:02;;;;;;;22.45;15.57;;;;;;;16.37;75.02;100669.81;5035125;28;20049;-58
2021/09/05 05:38:28;;;;;;;21.67;16.30;;;;;;;16.44;74.47;100668.09;5035395;28;20375;-58
2021/09/05 05:40:53;;;;;;;21.40;15.52;;;;;;;16.50;74.49;100672.03;5039356;28;20037;-58
2021/09/05 05:43:19;;;;;;;29.13;15.27;;;;;;;16.59;74.83;100672.22;5039673;28;20036;-58
2021/09/05 05:45:45;;;;;;;20.60;15.60;;;;;;;16.67;73.89;100676.53;5038884;28;20024;-58
2021/09/05 05:48:11;;;;;;;21.42;15.90;;;;;;;16.77;73.81;100671.91;5039504;28;20036;-58
2021/09/05 05:50:37;;;;;;;23.60;15.40;;;;;;;16.85;73.64;100676.97;5039087;28;20104;-56
2021/09/05 05:53:02;;;;;;;21.45;14.95;;;;;;;16.95;73.16;100675.91;5038744;28;20108;-58
2021/09/05 05:55:28;;;;;;;22.10;14.63;;;;;;;17.05;72.52;100685.47;5038933;28;20032;-58
2021/09/05 05:57:53;;;;;;;22.52;16.35;;;;;;;17.13;72.63;100680.41;5038967;28;20030;-59
2021/09/05 06:00:20;;;;;;;21.73;15.10;;;;;;;17.20;72.62;100685.91;5038924;28;20312;-58
2021/09/05 06:02:46;;;;;;;23.42;14.45;;;;;;;17.28;72.61;100687.38;5038758;28;20068;-57
2021/09/05 06:05:13;;;;;;;22.00;15.65;;;;;;;17.34;71.94;100685.59;5039031;28;20053;-58
2021/09/05 06:07:38;;;;;;;25.33;15.48;;;;;;;17.45;71.31;100688.97;5037806;28;20048;-65
2021/09/05 06:10:04;;;;;;;26.50;16.98;;;;;;;17.55;70.57;100685.09;5038474;28;20417;-58
2021/09/05 06:12:29;;;;;;;22.73;15.05;;;;;;;17.61;70.45;100691.81;5038551;28;20044;-58
2021/09/05 06:14:55;;;;;;;26.00;15.00;;;;;;;17.66;70.64;100695.38;5038579;28;20037;-66
2021/09/05 06:17:21;;;;;;;18.77;14.70;;;;;;;17.73;70.33;100698.06;5035077;28;20026;-58
2021/09/05 06:19:47;;;;;;;24.02;15.77;;;;;;;17.82;71.12;100698.25;5038614;28;20014;-58
2021/09/05 06:22:12;;;;;;;21.65;15.38;;;;;;;17.90;70.28;100693.97;5038324;28;20031;-58
2021/09/05 06:24:37;;;;;;;27.50;14.77;;;;;;;17.99;69.14;100705.50;5038085;28;20020;-52
2021/09/05 06:27:03;;;;;;;21.23;14.13;;;;;;;18.05;68.99;100698.03;5038371;28;20021;-58
2021/09/05 06:29:28;;;;;;;21.20;14.27;;;;;;;18.12;69.39;100700.72;5038206;28;20112;-59
2021/09/05 06:31:54;;;;;;;21.58;13.60;;;;;;;18.22;69.67;100699.59;5038265;28;20485;-59
2021/09/05 06:34:19;;;;;;;21.05;14.27;;;;;;;18.32;68.19;100705.44;5038156;28;20392;-59
2021/09/05 06:36:44;;;;;;;20.55;14.15;;;;;;;18.43;68.25;100708.81;5037753;28;20021;-58
2021/09/05 06:39:10;;;;;;;21.90;14.70;;;;;;;18.52;68.29;100715.44;5038334;28;20104;-58
2021/09/05 06:41:35;;;;;;;21.75;14.82;;;;;;;18.61;67.37;100714.78;5038208;28;20021;-59
2021/09/05 06:44:00;;;;;;;19.52;14.63;;;;;;;18.68;68.15;100719.53;5038068;28;20017;-59
2021/09/05 06:46:26;;;;;;;24.25;14.63;;;;;;;18.78;67.21;100719.19;5038229;28;20025;-63
2021/09/05 06:48:51;;;;;;;21.50;14.05;;;;;;;18.86;66.54;100716.94;5037706;28;20040;-59
2021/09/05 06:51:17;;;;;;;20.42;13.95;;;;;;;18.94;66.38;100715.50;5036856;28;20026;-59
2021/09/05 06:53:42;;;;;;;24.48;14.68;;;;;;;18.99;66.30;100720.63;5037914;28;20523;-58
2021/09/05 06:56:08;;;;;;;22.70;14.68;;;;;;;19.07;65.43;100726.91;5032652;28;20107;-58
2021/09/05 06:58:34;;;;;;;19.33;12.77;;;;;;;19.16;65.78;100732.72;5036382;28;20056;-66
2021/09/05 07:00:59;;;;;;;20.20;13.52;;;;;;;19.26;65.74;100731.59;5037413;28;20409;-56
2021/09/05 07:03:25;;;;;;;20.13;12.68;;;;;;;19.35;65.00;100734.56;5033770;28;20021;-59
2021/09/05 07:05:50;;;;;;;20.25;13.90;;;;;;;19.47;64.81;100735.03;5052638;28;20013;-58
2021/09/05 07:08:15;;;;;;;17.70;12.57;;;;;;;19.59;64.56;100739.97;5037736;28;20412;-58
2021/09/05 07:10:41;;;;;;;19.52;12.55;;;;;;;19.70;63.80;100744.06;5037443;28;20021;-58
2021/09/05 07:13:06;;;;;;;23.92;12.95;;;;;;;19.78;62.40;100746.69;5037327;28;20029;-58
2021/09/05 07:15:34;;;;;;;17.23;12.65;;;;;;;19.84;63.38;100748.50;5037379;28;20108;-64
2021/09/05 07:17:59;;;;;;;19.15;14.15;;;;;;;19.95;63.70;100751.78;5037571;28;20308;-58
2021/09/05 07:20:25;;;;;;;18.48;12.98;;;;;;;20.05;63.14;100752.69;5034474;28;20104;-57
2021/09/05 07:22:50;;;;;;;60.97;13.48;;;;;;;20.13;61.54;100754.03;5040789;28;20052;-59
2021/09/05 07:25:15;;;;;;;22.27;13.13;;;;;;;20.18;61.39;100756.31;5037438;28;20018;-57
2021/09/05 07:27:41;;;;;;;17.52;12.02;;;;;;;20.25;61.76;100758.13;5037449;28;20033;-63
2021/09/05 07:30:07;;;;;;;27.05;12.00;;;;;;;20.33;60.88;100759.47;5037104;28;20056;-57
2021/09/05 07:32:33;;;;;;;19.13;11.25;;;;;;;20.43;60.83;100764.03;5037202;28;20112;-56
2021/09/05 07:34:59;;;;;;;18.77;11.60;;;;;;;20.51;60.84;100773.94;5036732;28;20387;-56
2021/09/05 07:37:24;;;;;;;18.80;12.25;;;;;;;20.59;60.17;100775.28;5036835;28;20025;-58
2021/09/05 07:39:50;;;;;;;19.13;11.05;;;;;;;20.66;60.61;100775.03;5037222;28;20104;-58
2021/09/05 07:42:15;;;;;;;17.48;11.43;;;;;;;20.75;60.13;100773.50;5036970;28;20029;-60
2021/09/05 07:44:40;;;;;;;17.58;10.82;;;;;;;20.79;60.59;100774.16;5036977;28;20029;-58
2021/09/05 07:47:06;;;;;;;15.90;11.55;;;;;;;20.87;60.04;100784.09;5036905;28;20030;-60
2021/09/05 07:49:31;;;;;;;18.20;11.65;;;;;;;20.95;59.80;100788.28;5036217;28;20032;-59
2021/09/05 07:51:57;;;;;;;14.48;10.93;;;;;;;21.04;59.89;100794.03;5035022;28;20021;-56
2021/09/05 07:54:22;;;;;;;16.48;11.30;;;;;;;21.10;58.97;100792.19;5035616;28;20026;-57
2021/09/05 07:56:47;;;;;;;16.05;10.90;;;;;;;21.22;58.28;100796.22;5033803;28;20079;-56
2021/09/05 07:59:13;;;;;;;30.15;11.68;;;;;;;21.35;57.72;100801.88;5033682;28;20428;-60
2021/09/05 08:01:38;;;;;;;17.10;10.82;;;;;;;21.40;57.45;100799.25;5035990;28;20550;-60
2021/09/05 08:04:04;;;;;;;16.05;10.52;;;;;;;21.45;57.90;100800.69;5036285;28;20026;-59
2021/09/05 08:06:29;;;;;;;18.23;11.70;;;;;;;21.47;57.80;100803.88;5036347;28;20029;-67
2021/09/05 08:08:58;;;;;;;17.10;11.25;;;;;;;21.51;56.80;100804.53;5036542;28;20029;-60
2021/09/05 08:11:26;;;;;;;13.48;10.40;;;;;;;21.53;56.65;100802.00;5022764;28;20414;-59
2021/09/05 08:13:52;;;;;;;18.75;10.25;;;;;;;21.61;56.52;100809.03;5024114;28;20456;-59
2021/09/05 08:16:18;;;;;;;16.90;10.38;;;;;;;21.63;56.57;100806.50;5034197;28;20030;-60
2021/09/05 08:18:44;;;;;;;20.88;10.63;;;;;;;21.67;56.84;100809.22;5036288;28;20028;-59
2021/09/05 08:21:10;;;;;;;21.35;11.55;;;;;;;21.69;56.60;100818.16;5035641;28;20032;-59
2021/09/05 08:23:38;;;;;;;19.60;10.95;;;;;;;21.74;56.51;100812.59;5053424;28;20090;-69
2021/09/05 08:26:04;;;;;;;13.52;9.75;;;;;;;21.81;55.97;100817.22;5041816;28;20087;-60
2021/09/05 08:28:30;;;;;;;14.73;9.93;;;;;;;21.88;55.34;100814.06;5045403;28;20431;-60
2021/09/05 08:30:56;;;;;;;15.45;10.25;;;;;;;21.95;55.43;100805.22;5054094;28;20056;-61
2021/09/05 08:33:22;;;;;;;16.60;10.05;;;;;;;22.02;55.23;100813.50;5053667;28;20026;-60
2021/09/05 08:35:48;;;;;;;14.88;9.90;;;;;;;22.09;55.23;100809.56;5043296;28;20040;-56
2021/09/05 08:38:14;;;;;;;13.70;9.55;;;;;;;22.16;54.78;100829.31;5051514;28;20029;-67
2021/09/05 08:40:45;;;;;;;17.27;10.20;;;;;;;22.21;53.99;100817.25;5053328;28;20025;-66
2021/09/05 08:43:11;;;;;;;16.75;9.82;;;;;;;22.22;53.98;100816.00;5043715;28;20048;-54
2021/09/05 08:45:38;;;;;;;11.55;8.88;;;;;;;22.25;54.61;100812.19;5034963;28;20029;-61
2021/09/05 08:48:04;;;;;;;15.35;9.30;;;;;;;22.31;55.11;100813.13;5035547;28;20052;-63
2021/09/05 08:50:32;;;;;;;11.43;8.70;;;;;;;22.40;53.51;100812.34;5035268;28;20025;-59
2021/09/05 08:52:58;;;;;;;13.70;9.70;;;;;;;22.43;53.64;100829.38;5035297;28;20022;-58
2021/09/05 08:55:24;;;;;;;13.85;8.82;;;;;;;22.47;53.04;100817.78;5035246;28;20033;-57
2021/09/05 08:57:50;;;;;;;13.23;9.05;;;;;;;22.50;52.66;100828.28;5035356;28;20520;-63
2021/09/05 09:00:15;;;;;;;13.77;8.57;;;;;;;22.51;53.04;100821.28;5035488;28;20045;-57
2021/09/05 09:02:45;;;;;;;12.70;8.85;;;;;;;22.57;53.14;100815.72;5035110;28;20022;-64
2021/09/05 09:05:11;;;;;;;15.95;9.98;;;;;;;22.64;52.23;100816.19;5031029;28;20076;-57
2021/09/05 09:07:44;;;;;;;16.10;9.32;;;;;;;22.70;52.49;100813.50;5018696;28;20057;-65
2021/09/05 09:10:10;;;;;;;17.60;9.10;;;;;;;22.72;52.50;100808.06;5035804;28;20025;-57
2021/09/05 09:12:37;;;;;;;13.98;8.65;;;;;;;22.77;52.20;100804.59;5033982;28;20354;-57
2021/09/05 09:15:03;;;;;;;15.57;8.68;;;;;;;22.85;52.10;100814.50;5034890;28;20052;-63
2021/09/05 09:17:38;;;;;;;13.18;8.52;;;;;;;22.95;52.66;100821.81;5035381;28;20160;-59
2021/09/05 09:20:04;;;;;;;12.65;8.95;;;;;;;23.07;52.04;100818.00;5035370;28;20055;-63
2021/09/05 09:22:29;;;;;;;15.48;8.23;;;;;;;23.18;50.74;100808.88;5026109;28;20080;-58
2021/09/05 09:24:54;;;;;;;39.22;8.60;;;;;;;23.23;49.76;100816.03;5035209;28;20298;-57
2021/09/05 09:27:20;;;;;;;9.32;7.95;;;;;;;23.20;49.40;100817.81;5035484;28;20025;-51
2021/09/05 09:29:45;;;;;;;14.57;8.27;;;;;;;23.22;49.57;100814.47;5035168;28;20055;-58
2021/09/05 09:32:19;;;;;;;14.00;7.47;;;;;;;23.30;49.40;100821.47;5035161;28;20298;-55
2021/09/05 09:34:47;;;;;;;11.55;7.63;;;;;;;23.36;50.26;100814.59;5035105;28;20028;-57
2021/09/05 09:37:13;;;;;;;10.23;7.95;;;;;;;23.40;49.24;100815.22;5035116;28;20109;-65
2021/09/05 09:39:49;;;;;;;9.68;7.43;;;;;;;23.43;48.73;100824.94;5035101;28;20030;-63
2021/09/05 09:42:39;;;;;;;15.00;7.80;;;;;;;23.46;48.88;100811.69;5035432;28;20028;-57
2021/09/05 09:45:13;;;;;;;12.07;7.30;;;;;;;23.48;47.51;100804.19;5034900;28;20059;-64
2021/09/05 09:47:43;;;;;;;8.18;6.53;;;;;;;23.45;47.82;100810.91;5034709;28;20029;-63
2021/09/05 09:50:09;;;;;;;9.30;7.43;;;;;;;23.49;47.97;100817.25;5034744;28;20404;-64
2021/09/05 09:52:35;;;;;;;8.70;6.30;;;;;;;23.55;47.59;100809.59;5035125;28;20120;-57
2021/09/05 09:55:02;;;;;;;11.95;7.75;;;;;;;23.57;48.43;100812.03;5034872;28;20084;-63
2021/09/05 09:57:27;;;;;;;11.25;7.07;;;;;;;23.58;47.12;100814.41;5030964;28;20405;-64
2021/09/05 09:59:53;;;;;;;11.27;7.07;;;;;;;23.62;47.37;100809.31;5031208;28;20036;-65
2021/09/05 10:02:20;;;;;;;17.38;6.80;;;;;;;23.71;47.58;100808.47;5038834;28;20032;-64
2021/09/05 10:04:50;;;;;;;10.68;6.43;;;;;;;23.81;48.42;100806.34;5024691;28;20060;-64
2021/09/05 10:07:22;;;;;;;11.93;5.95;;;;;;;23.88;46.86;100803.94;5037261;28;20025;-58
2021/09/05 10:09:47;;;;;;;;;;;;;;;23.98;47.59;100796.88;5023445;28;20029;-58
2021/09/05 10:12:15;;;;;;;8.52;6.18;;;;;;;24.06;47.22;100797.28;5038505;28;19917;-57
2021/09/05 10:14:40;;;;;;;7.53;6.13;;;;;;;24.16;45.80;100804.59;5030012;28;20034;-58
2021/09/05 10:17:09;;;;;;;9.30;6.18;;;;;;;24.17;45.45;100800.44;5036643;28;20038;-56
2021/09/05 10:19:39;;;;;;;9.18;6.15;;;;;;;24.15;44.91;100803.00;5030045;28;20040;-64
2021/09/05 10:22:05;;;;;;;8.00;6.20;;;;;;;24.15;44.47;100805.88;5024985;28;20040;-62
2021/09/05 10:24:46;;;;;;;9.25;5.95;;;;;;;24.21;47.60;100797.38;5029586;28;20041;-57
2021/09/05 10:27:13;;;;;;;10.18;6.05;;;;;;;24.28;44.15;100797.03;5054814;28;20098;-58
2021/09/05 10:29:58;;;;;;;10.20;5.55;;;;;;;24.31;43.70;100807.56;5037533;28;20032;-57
2021/09/05 10:33:04;;;;;;;11.40;7.35;;;;;;;24.37;44.76;100796.97;5038136;28;20034;-57
2021/09/05 10:35:37;;;;;;;7.22;6.20;;;;;;;24.40;44.18;100798.09;5038402;28;20105;-56
2021/09/05 10:38:12;;;;;;;7.63;5.45;;;;;;;24.41;44.26;100791.06;5038053;28;20093;-57
2021/09/05 10:40:49;;;;;;;7.53;5.90;;;;;;;24.44;42.24;100790.09;5034120;28;20593;-58
2021/09/05 10:43:15;;;;;;;7.80;6.28;;;;;;;24.45;44.51;100800.28;5037462;28;20405;-59
2021/09/05 10:45:44;;;;;;;9.13;6.40;;;;;;;24.50;43.08;100799.63;5038028;28;20061;-57
2021/09/05 10:48:36;;;;;;;12.55;6.13;;;;;;;24.40;42.53;100798.91;5036606;28;20432;-58
2021/09/05 10:51:07;;;;;;;9.68;5.90;;;;;;;24.45;44.61;100791.69;5037278;28;20360;-58
2021/09/05 10:53:47;;;;;;;8.68;6.38;;;;;;;24.45;43.76;100801.09;5034364;28;20037;-57
2021/09/05 10:56:15;;;;;;;11.35;6.38;;;;;;;24.48;44.33;100799.31;5032804;28;20021;-56
2021/09/05 10:58:48;;;;;;;10.48;6.20;;;;;;;24.60;45.33;100792.50;5037582;28;20032;-66
2021/09/05 11:02:00;;;;;;;12.15;5.78;;;;;;;24.75;44.13;100796.22;5029853;28;20071;-57
2021/09/05 11:04:44;;;;;;;9.23;6.55;;;;;;;24.80;43.42;100795.53;5037596;28;20061;-58
2021/09/05 11:07:31;;;;;;;10.18;6.18;;;;;;;24.85;43.29;100791.97;5025488;28;20041;-57
2021/09/05 11:09:57;;;;;;;8.75;5.88;;;;;;;24.91;43.27;100789.22;5036579;28;20037;-58
2021/09/05 11:12:40;;;;;;;9.55;6.13;;;;;;;25.01;44.79;100793.63;5037610;28;20028;-64